Time;durP1;ratioP1;P1;durP2;ratioP2;P2;SDS_P1;SDS_P2;PMS_P1;PMS_P2;Temp;Humidity;BMP_temperature;BMP_pressure;BME280_temperature;BME280_humidity;BME280_pressure;Samples;Min_cycle;Max_cycle;Signal;HPM_P1;HPM_P2
2023/07/26 00:02:22;;;;;;;7.57;5.53;;;13.40;99.90;;;;;;5030114;28;20968;-70
2023/07/26 00:04:48;;;;;;;7.47;6.13;;;13.30;99.90;;;;;;5029960;28;20483;-70
2023/07/26 00:07:15;;;;;;;7.07;5.67;;;13.30;99.90;;;;;;5029709;28;20480;-70
2023/07/26 00:09:42;;;;;;;8.50;6.67;;;13.40;99.90;;;;;;5029867;28;20467;-70
2023/07/26 00:12:10;;;;;;;8.07;6.60;;;13.30;99.90;;;;;;5030197;28;20456;-70
2023/07/26 00:14:36;;;;;;;5.30;4.73;;;13.40;99.90;;;;;;5029766;28;20494;-70
2023/07/26 00:17:03;;;;;;;8.63;6.77;;;13.40;99.90;;;;;;5029685;28;20480;-71
2023/07/26 00:19:30;;;;;;;7.23;6.03;;;13.40;99.90;;;;;;5029846;28;20936;-70
2023/07/26 00:21:57;;;;;;;7.13;5.80;;;13.30;99.90;;;;;;5029989;28;20879;-70
2023/07/26 00:24:23;;;;;;;7.03;6.33;;;13.40;99.90;;;;;;5030481;28;21036;-71
2023/07/26 00:26:50;;;;;;;7.23;6.53;;;13.30;99.90;;;;;;5033345;28;20461;-70
2023/07/26 00:29:18;;;;;;;8.00;6.57;;;13.30;99.90;;;;;;5033729;28;20468;-70
2023/07/26 00:31:45;;;;;;;9.57;7.07;;;13.30;99.90;;;;;;5033670;28;20460;-70
2023/07/26 00:34:11;;;;;;;9.43;6.63;;;13.30;99.90;;;;;;5033744;28;20460;-70
2023/07/26 00:36:38;;;;;;;7.47;6.77;;;13.30;99.90;;;;;;5033061;28;20481;-70
2023/07/26 00:39:05;;;;;;;7.50;6.70;;;13.40;99.90;;;;;;5033568;28;20983;-70
2023/07/26 00:41:31;;;;;;;12.20;7.13;;;13.40;99.90;;;;;;5033536;28;20468;-71
2023/07/26 00:43:58;;;;;;;8.50;7.27;;;13.30;99.90;;;;;;5033529;28;20471;-71
2023/07/26 00:46:27;;;;;;;9.80;6.80;;;13.40;99.90;;;;;;5032989;28;20463;-71
2023/07/26 00:48:54;;;;;;;7.10;6.40;;;13.30;99.90;;;;;;5033444;28;20484;-71
2023/07/26 00:51:22;;;;;;;8.10;7.30;;;13.40;99.90;;;;;;5033355;28;20838;-71
2023/07/26 00:53:49;;;;;;;7.70;6.00;;;13.40;99.90;;;;;;5033099;28;21172;-70
2023/07/26 00:56:15;;;;;;;9.60;7.87;;;13.40;99.90;;;;;;5032746;28;20838;-71
2023/07/26 00:58:42;;;;;;;7.57;6.80;;;13.40;99.90;;;;;;5033046;28;20856;-71
2023/07/26 01:01:09;;;;;;;6.33;5.67;;;13.40;99.90;;;;;;5033398;28;20829;-70
2023/07/26 01:03:37;;;;;;;6.70;6.07;;;13.40;99.90;;;;;;5033032;28;20467;-71
2023/07/26 01:06:14;;;;;;;6.90;6.17;;;13.40;99.90;;;;;;5032686;28;20463;-70
2023/07/26 01:08:51;;;;;;;7.20;6.50;;;13.40;99.90;;;;;;5033061;28;20482;-71
2023/07/26 01:11:27;;;;;;;8.40;6.27;;;13.40;99.90;;;;;;5033120;28;20464;-70
2023/07/26 01:14:00;;;;;;;6.50;5.77;;;13.40;99.90;;;;;;5032889;28;20467;-71
2023/07/26 01:16:28;;;;;;;7.13;6.43;;;13.40;99.90;;;;;;5032302;28;20467;-70
2023/07/26 01:18:56;;;;;;;6.20;5.60;;;13.40;99.90;;;;;;5032571;28;20480;-70
2023/07/26 01:21:23;;;;;;;6.43;5.70;;;13.40;99.90;;;;;;5032842;28;20483;-70
2023/07/26 01:23:51;;;;;;;10.23;6.60;;;13.40;99.90;;;;;;5032669;28;20496;-71
2023/07/26 01:26:18;;;;;;;6.50;5.90;;;13.40;99.90;;;;;;5032327;28;20491;-71
2023/07/26 01:28:45;;;;;;;10.30;5.23;;;13.40;99.90;;;;;;5032521;28;20476;-71
2023/07/26 01:31:13;;;;;;;7.50;5.10;;;13.40;99.90;;;;;;5032694;28;20472;-70
2023/07/26 01:33:41;;;;;;;5.43;4.93;;;13.30;99.90;;;;;;5032563;28;20536;-70
2023/07/26 01:36:08;;;;;;;5.43;4.13;;;13.30;99.90;;;;;;5031668;28;20464;-70
2023/07/26 01:38:35;;;;;;;4.60;4.00;;;13.30;99.90;;;;;;5032102;28;20859;-70
2023/07/26 01:41:04;;;;;;;4.20;3.57;;;13.30;99.90;;;;;;5032478;28;20502;-71
2023/07/26 01:43:32;;;;;;;7.87;4.57;;;13.30;99.90;;;;;;5032357;28;20460;-71
2023/07/26 01:45:59;;;;;;;4.20;3.90;;;13.20;99.90;;;;;;5031893;28;20468;-70
2023/07/26 01:48:25;;;;;;;4.10;3.70;;;13.20;99.90;;;;;;5032238;28;20479;-70
2023/07/26 01:50:52;;;;;;;4.37;3.97;;;13.20;99.90;;;;;;5032112;28;20464;-70
2023/07/26 01:53:19;;;;;;;4.30;3.90;;;13.20;99.90;;;;;;5032087;28;20487;-70
2023/07/26 01:55:46;;;;;;;4.67;4.17;;;13.20;99.90;;;;;;5032085;28;20467;-70
2023/07/26 01:58:14;;;;;;;5.03;3.70;;;13.20;99.90;;;;;;5031979;28;21068;-70
2023/07/26 02:00:41;;;;;;;4.07;3.47;;;13.10;99.90;;;;;;5032017;28;20467;-70
2023/07/26 02:03:07;;;;;;;4.67;4.03;;;13.10;99.90;;;;;;5031967;28;20464;-70
2023/07/26 02:05:34;;;;;;;7.60;4.07;;;13.10;99.90;;;;;;5031860;28;20951;-70
2023/07/26 02:08:01;;;;;;;4.30;3.33;;;13.10;99.90;;;;;;5031490;28;20477;-70
2023/07/26 02:10:27;;;;;;;4.03;3.63;;;13.00;99.90;;;;;;5031826;28;20456;-70
2023/07/26 02:12:54;;;;;;;5.57;4.10;;;13.00;99.90;;;;;;5031732;28;20982;-70
2023/07/26 02:15:22;;;;;;;6.83;4.37;;;13.00;99.90;;;;;;5031672;28;20464;-71
2023/07/26 02:17:49;;;;;;;4.27;3.73;;;13.00;99.90;;;;;;5031533;28;20488;-71
2023/07/26 02:20:16;;;;;;;5.03;4.23;;;13.00;99.90;;;;;;5031659;28;20464;-70
2023/07/26 02:22:42;;;;;;;4.70;3.80;;;13.00;99.90;;;;;;5031723;28;20467;-70
2023/07/26 02:25:09;;;;;;;4.47;4.07;;;13.00;99.90;;;;;;5031418;28;20464;-71
2023/07/26 02:27:36;;;;;;;4.40;4.00;;;13.00;99.90;;;;;;5031066;28;20472;-70
2023/07/26 02:30:03;;;;;;;4.67;4.17;;;13.00;99.90;;;;;;5031421;28;20505;-70
2023/07/26 02:32:31;;;;;;;4.57;4.17;;;13.00;99.90;;;;;;5031460;28;20471;-70
2023/07/26 02:34:57;;;;;;;4.33;3.93;;;12.90;99.90;;;;;;5031074;28;20952;-71
2023/07/26 02:37:24;;;;;;;4.73;4.20;;;13.00;99.90;;;;;;5030647;28;20526;-70
2023/07/26 02:39:52;;;;;;;5.40;4.33;;;13.00;99.90;;;;;;5031348;28;20465;-70
2023/07/26 02:42:18;;;;;;;8.90;3.83;;;13.00;99.90;;;;;;5031280;28;20464;-70
2023/07/26 02:44:46;;;;;;;5.00;3.97;;;13.00;99.90;;;;;;5031203;28;20464;-70
2023/07/26 02:47:13;;;;;;;4.30;3.90;;;12.90;99.90;;;;;;5029868;28;20527;-71
2023/07/26 02:49:41;;;;;;;4.57;4.17;;;12.90;99.90;;;;;;5031101;28;20463;-70
2023/07/26 02:52:08;;;;;;;4.60;3.90;;;12.90;99.90;;;;;;5031145;28;20460;-70
2023/07/26 02:54:35;;;;;;;4.53;4.13;;;12.90;99.90;;;;;;5030846;28;20460;-70
2023/07/26 02:57:01;;;;;;;6.50;4.33;;;12.90;99.90;;;;;;5030566;28;20460;-70
2023/07/26 02:59:28;;;;;;;4.53;3.60;;;12.90;99.90;;;;;;5030872;28;20483;-71
2023/07/26 03:01:55;;;;;;;6.10;3.93;;;12.90;99.90;;;;;;5030847;28;20472;-70
2023/07/26 03:04:21;;;;;;;3.70;3.40;;;12.90;99.90;;;;;;5030772;28;20471;-70
2023/07/26 03:06:51;;;;;;;4.40;4.03;;;12.90;99.90;;;;;;5030485;28;20456;-70
2023/07/26 03:09:18;;;;;;;6.07;3.90;;;12.80;99.90;;;;;;5030537;28;20464;-70
2023/07/26 03:11:44;;;;;;;4.80;4.30;;;12.80;99.90;;;;;;5030832;28;20472;-70
2023/07/26 03:14:11;;;;;;;4.60;4.17;;;12.80;99.90;;;;;;5030645;28;20467;-70
2023/07/26 03:16:38;;;;;;;6.80;4.73;;;12.80;99.90;;;;;;5030140;28;20464;-70
2023/07/26 03:19:05;;;;;;;4.07;3.67;;;12.90;99.90;;;;;;5030453;28;20510;-70
2023/07/26 03:21:32;;;;;;;4.77;4.27;;;12.90;99.90;;;;;;5029994;28;20487;-70
2023/07/26 03:24:00;;;;;;;5.80;3.73;;;12.80;99.90;;;;;;5030417;28;20456;-71
2023/07/26 03:26:26;;;;;;;5.23;4.33;;;12.90;99.90;;;;;;5029962;28;20460;-71
2023/07/26 03:28:53;;;;;;;3.73;3.43;;;12.80;99.90;;;;;;5030363;28;20476;-71
2023/07/26 03:31:20;;;;;;;3.90;3.50;;;12.90;99.90;;;;;;5029821;28;20460;-71
2023/07/26 03:33:46;;;;;;;6.63;3.60;;;12.80;99.90;;;;;;5030836;28;20830;-71
2023/07/26 03:36:13;;;;;;;4.50;4.10;;;12.80;99.90;;;;;;5029747;28;20464;-70
2023/07/26 03:38:40;;;;;;;6.73;3.80;;;12.80;99.90;;;;;;5030303;28;20491;-71
2023/07/26 03:41:08;;;;;;;4.33;3.93;;;12.80;99.90;;;;;;5030358;28;20471;-71
2023/07/26 03:43:35;;;;;;;3.47;3.17;;;12.80;99.90;;;;;;5030280;28;20475;-72
2023/07/26 03:46:01;;;;;;;3.50;3.20;;;12.80;99.90;;;;;;5029665;28;20846;-70
2023/07/26 03:48:28;;;;;;;4.10;3.70;;;12.80;99.90;;;;;;5029817;28;20476;-71
2023/07/26 03:50:55;;;;;;;4.37;3.73;;;12.80;99.90;;;;;;5030271;28;21058;-70
2023/07/26 03:53:21;;;;;;;4.40;3.80;;;12.80;99.90;;;;;;5029789;28;20483;-70
2023/07/26 03:55:48;;;;;;;3.90;3.50;;;12.80;99.90;;;;;;5029654;28;20464;-69
2023/07/26 03:58:18;;;;;;;3.77;3.47;;;12.80;99.90;;;;;;5029748;28;20484;-70
2023/07/26 04:00:44;;;;;;;4.00;3.60;;;12.80;99.90;;;;;;5036696;28;20464;-70
2023/07/26 04:03:11;;;;;;;4.70;4.30;;;12.70;99.90;;;;;;5036658;28;20980;-70
2023/07/26 04:05:38;;;;;;;4.50;3.50;;;12.70;99.90;;;;;;5036308;28;20453;-70
2023/07/26 04:08:05;;;;;;;4.20;3.70;;;12.70;99.90;;;;;;5036086;28;20488;-71
2023/07/26 04:10:32;;;;;;;4.07;3.10;;;12.70;99.90;;;;;;5036101;28;20471;-70
2023/07/26 04:12:58;;;;;;;4.23;3.83;;;12.70;99.90;;;;;;5036646;28;20464;-72
2023/07/26 04:15:26;;;;;;;5.60;4.37;;;12.70;99.90;;;;;;5036278;28;20828;-72
2023/07/26 04:17:53;;;;;;;4.50;3.90;;;12.60;99.90;;;;;;5036246;28;20498;-72
2023/07/26 04:20:20;;;;;;;5.70;3.80;;;12.70;99.90;;;;;;5035959;28;20948;-72
2023/07/26 04:22:46;;;;;;;4.17;3.77;;;12.70;99.90;;;;;;5035888;28;20464;-72
2023/07/26 04:25:13;;;;;;;5.37;4.53;;;12.60;99.90;;;;;;5036305;28;20459;-72
2023/07/26 04:27:40;;;;;;;4.40;3.30;;;12.60;99.90;;;;;;5036044;28;20487;-72
2023/07/26 04:30:08;;;;;;;4.50;3.90;;;12.60;99.90;;;;;;5036462;28;20466;-73
2023/07/26 04:32:36;;;;;;;3.90;3.60;;;12.60;99.90;;;;;;5036371;28;20467;-72
2023/07/26 04:35:02;;;;;;;3.60;3.30;;;12.60;99.90;;;;;;5036166;28;20847;-72
2023/07/26 04:37:29;;;;;;;3.80;3.47;;;12.70;99.90;;;;;;5067169;22;20666;-94
2023/07/26 04:39:56;;;;;;;3.97;3.67;;;12.70;99.90;;;;;;5061000;28;20531;-95
2023/07/26 04:42:23;;;;;;;3.80;3.50;;;12.70;99.90;;;;;;5058539;28;20468;-95
2023/07/26 04:44:50;;;;;;;4.50;4.10;;;12.70;99.90;;;;;;5048971;28;20470;-93
2023/07/26 04:47:18;;;;;;;4.77;3.60;;;12.70;99.90;;;;;;5057794;28;20476;-93
2023/07/26 04:49:47;;;;;;;4.37;3.80;;;12.80;99.90;;;;;;5062934;28;20487;-93
2023/07/26 04:52:14;;;;;;;4.50;4.10;;;12.70;99.90;;;;;;5056787;28;20459;-92
2023/07/26 04:54:41;;;;;;;6.47;4.50;;;12.80;99.90;;;;;;5059243;28;20470;-93
2023/07/26 04:57:07;;;;;;;4.83;3.73;;;12.70;99.90;;;;;;5059008;28;20483;-94
2023/07/26 04:59:34;;;;;;;4.50;4.10;;;12.80;99.90;;;;;;5058839;28;20475;-92
2023/07/26 05:02:01;;;;;;;3.80;3.50;;;12.80;99.90;;;;;;5058672;28;20480;-93
2023/07/26 05:04:28;;;;;;;5.03;4.03;;;12.80;99.90;;;;;;5058984;28;20479;-94
2023/07/26 05:06:56;;;;;;;2.90;2.70;;;12.90;99.90;;;;;;5059155;28;20571;-94
2023/07/26 05:09:23;;;;;;;4.50;4.10;;;12.90;99.90;;;;;;5061384;28;20455;-93
2023/07/26 05:11:50;;;;;;;4.33;3.93;;;12.90;99.90;;;;;;5061678;28;20531;-92
2023/07/26 05:14:17;;;;;;;4.43;3.83;;;12.80;99.90;;;;;;5066794;23;20504;-71
2023/07/26 05:16:44;;;;;;;3.80;3.50;;;12.80;99.90;;;;;;5037589;28;20492;-72
2023/07/26 05:19:10;;;;;;;3.80;3.50;;;12.80;99.90;;;;;;5041507;28;20488;-72
2023/07/26 05:21:37;;;;;;;4.90;3.80;;;12.80;99.90;;;;;;5052977;28;20460;-70
2023/07/26 05:24:05;;;;;;;5.23;4.27;;;12.80;99.90;;;;;;5052452;28;20981;-72
2023/07/26 05:26:32;;;;;;;4.03;3.63;;;12.80;99.90;;;;;;5049252;28;20833;-73
2023/07/26 05:28:59;;;;;;;3.83;3.43;;;12.80;99.90;;;;;;5048872;28;20482;-77
2023/07/26 05:31:26;;;;;;;3.70;3.40;;;12.80;99.90;;;;;;5037126;28;20456;-76
2023/07/26 05:33:52;;;;;;;8.10;4.10;;;12.80;99.90;;;;;;5038492;28;20464;-69
2023/07/26 05:36:19;;;;;;;4.90;4.50;;;12.80;99.90;;;;;;5033619;28;20467;-71
2023/07/26 05:38:46;;;;;;;3.97;3.67;;;12.90;99.90;;;;;;5046989;28;20997;-73
2023/07/26 05:41:14;;;;;;;6.13;4.00;;;12.90;99.90;;;;;;5052338;28;20504;-72
2023/07/26 05:43:41;;;;;;;4.40;4.00;;;13.00;99.90;;;;;;5049374;28;20471;-71
2023/07/26 05:46:07;;;;;;;3.53;3.23;;;13.00;99.90;;;;;;5036932;28;20465;-71
2023/07/26 05:48:34;;;;;;;4.93;3.87;;;13.00;99.90;;;;;;5043017;28;20870;-72
2023/07/26 05:51:01;;;;;;;5.67;3.80;;;13.10;99.90;;;;;;5050229;28;20478;-71
2023/07/26 05:53:28;;;;;;;3.83;3.53;;;13.10;99.90;;;;;;5041497;28;20456;-71
2023/07/26 05:55:55;;;;;;;4.30;3.53;;;13.10;99.90;;;;;;5038163;28;20972;-71
2023/07/26 05:58:23;;;;;;;4.83;4.13;;;13.20;99.90;;;;;;5050361;28;20480;-70
2023/07/26 06:00:49;;;;;;;4.67;3.63;;;13.20;99.90;;;;;;5040185;28;20465;-70
2023/07/26 06:03:16;;;;;;;3.90;3.60;;;13.20;99.90;;;;;;5040645;28;20467;-71
2023/07/26 06:05:43;;;;;;;3.63;3.33;;;13.30;99.90;;;;;;5051642;28;20464;-70
2023/07/26 06:08:10;;;;;;;3.80;3.50;;;13.30;99.90;;;;;;5051151;28;20479;-71
2023/07/26 06:10:36;;;;;;;3.70;3.40;;;13.30;99.90;;;;;;5043484;28;20455;-71
2023/07/26 06:13:04;;;;;;;5.80;3.63;;;13.30;99.90;;;;;;5051662;28;20845;-71
2023/07/26 06:15:32;;;;;;;3.33;3.03;;;13.40;99.90;;;;;;5051361;28;20474;-72
2023/07/26 06:17:58;;;;;;;3.30;3.00;;;13.40;99.90;;;;;;5043479;28;20558;-73
2023/07/26 06:20:25;;;;;;;4.23;3.83;;;13.40;99.90;;;;;;5033451;28;20464;-73
2023/07/26 06:22:52;;;;;;;4.27;3.83;;;13.50;99.90;;;;;;5044495;28;20460;-73
2023/07/26 06:25:18;;;;;;;5.03;2.90;;;13.50;99.90;;;;;;5051598;28;20486;-73
2023/07/26 06:27:45;;;;;;;3.63;3.30;;;13.50;99.90;;;;;;5051342;28;20487;-69
2023/07/26 06:30:15;;;;;;;4.87;3.63;;;13.50;99.90;;;;;;5051483;28;20452;-71
2023/07/26 06:32:43;;;;;;;5.10;3.87;;;13.50;99.90;;;;;;5043887;28;20871;-71
2023/07/26 06:35:10;;;;;;;3.50;3.20;;;13.60;99.90;;;;;;5035627;28;20483;-71
2023/07/26 06:37:37;;;;;;;3.40;3.10;;;13.60;99.90;;;;;;5050757;28;20486;-72
2023/07/26 06:40:04;;;;;;;7.73;3.83;;;13.60;99.90;;;;;;5051119;28;20476;-71
2023/07/26 06:42:31;;;;;;;4.13;3.83;;;13.60;99.90;;;;;;5050336;28;20468;-70
2023/07/26 06:44:58;;;;;;;4.90;3.83;;;13.70;99.90;;;;;;5050778;28;20463;-71
2023/07/26 06:47:24;;;;;;;4.60;3.60;;;13.70;99.90;;;;;;5050833;28;20480;-71
2023/07/26 06:49:53;;;;;;;3.43;3.17;;;13.70;99.90;;;;;;5050970;28;20455;-74
2023/07/26 06:52:19;;;;;;;3.37;3.10;;;13.70;99.90;;;;;;5050550;28;20471;-72
2023/07/26 06:54:46;;;;;;;3.50;3.20;;;13.80;99.90;;;;;;5035135;28;20460;-70
2023/07/26 06:57:13;;;;;;;4.20;3.00;;;13.70;99.90;;;;;;5050532;28;20483;-69
2023/07/26 06:59:39;;;;;;;3.83;3.43;;;13.70;99.90;;;;;;5050719;28;20472;-72
2023/07/26 07:02:07;;;;;;;4.67;3.60;;;13.70;99.90;;;;;;5051156;28;20463;-75
2023/07/26 07:04:33;;;;;;;4.00;3.60;;;13.70;99.90;;;;;;5050907;28;20463;-71
2023/07/26 07:07:02;;;;;;;4.13;3.73;;;13.80;99.90;;;;;;5050290;28;20459;-72
2023/07/26 07:09:28;;;;;;;4.00;3.60;;;13.80;99.90;;;;;;5050703;28;20455;-71
2023/07/26 07:11:55;;;;;;;3.23;2.93;;;13.80;99.90;;;;;;5050887;28;20470;-74
2023/07/26 07:14:22;;;;;;;5.40;4.20;;;13.80;99.90;;;;;;5050257;28;20470;-74
2023/07/26 07:16:49;;;;;;;4.00;3.60;;;13.80;99.90;;;;;;5050160;28;20482;-71
2023/07/26 07:19:15;;;;;;;4.30;3.20;;;13.80;99.90;;;;;;5042415;28;20486;-74
2023/07/26 07:21:44;;;;;;;4.17;3.77;;;13.80;99.90;;;;;;5046582;28;20467;-71
2023/07/26 07:24:12;;;;;;;3.50;3.20;;;13.70;99.90;;;;;;5037842;28;20460;-73
2023/07/26 07:26:39;;;;;;;3.27;2.97;;;13.70;99.90;;;;;;5047823;28;20665;-72
2023/07/26 07:29:05;;;;;;;3.53;2.90;;;13.70;99.90;;;;;;5047894;28;20479;-73
2023/07/26 07:31:33;;;;;;;5.73;3.70;;;13.70;99.90;;;;;;5048963;28;20466;-73
2023/07/26 07:33:59;;;;;;;3.87;3.27;;;13.70;99.90;;;;;;5048545;28;20463;-75
2023/07/26 07:36:26;;;;;;;4.53;3.63;;;13.70;99.90;;;;;;5046726;28;20954;-76
2023/07/26 07:38:53;;;;;;;3.60;3.20;;;13.70;99.90;;;;;;5029840;28;20500;-72
2023/07/26 07:41:21;;;;;;;6.43;3.30;;;13.70;99.90;;;;;;5029770;28;20959;-72
2023/07/26 07:43:47;;;;;;;3.57;3.27;;;13.60;99.90;;;;;;5029321;28;20476;-72
2023/07/26 07:46:14;;;;;;;4.40;3.80;;;13.60;99.90;;;;;;5029555;28;20467;-73
2023/07/26 07:48:41;;;;;;;3.80;3.50;;;13.60;99.90;;;;;;5029656;28;21048;-70
2023/07/26 07:51:08;;;;;;;4.43;3.67;;;13.60;99.90;;;;;;5029698;28;20472;-70
2023/07/26 07:53:35;;;;;;;5.40;3.57;;;13.60;99.90;;;;;;5029528;28;20464;-70
2023/07/26 07:56:02;;;;;;;3.73;3.43;;;13.60;99.90;;;;;;5044424;28;20478;-69
2023/07/26 07:58:30;;;;;;;3.93;3.10;;;13.60;99.90;;;;;;5040531;28;20476;-69
2023/07/26 08:00:59;;;;;;;4.03;3.27;;;13.60;99.90;;;;;;5049605;28;20466;-69
2023/07/26 08:03:26;;;;;;;4.10;3.80;;;13.60;99.90;;;;;;5049269;28;20470;-70
2023/07/26 08:05:53;;;;;;;3.33;3.03;;;13.60;99.90;;;;;;5048668;28;20459;-71
2023/07/26 08:08:20;;;;;;;3.33;3.03;;;13.60;99.90;;;;;;5049351;28;20837;-71
2023/07/26 08:10:47;;;;;;;7.10;3.53;;;13.60;99.90;;;;;;5049330;28;20467;-71
2023/07/26 08:13:13;;;;;;;3.60;3.30;;;13.60;99.90;;;;;;5049078;28;20552;-71
2023/07/26 08:15:41;;;;;;;3.57;2.73;;;13.50;99.90;;;;;;5048807;28;20478;-72
2023/07/26 08:18:09;;;;;;;3.30;3.00;;;13.40;99.90;;;;;;5048755;28;20487;-71
2023/07/26 08:20:36;;;;;;;3.37;3.07;;;13.40;99.90;;;;;;5049322;28;20577;-69
2023/07/26 08:23:03;;;;;;;3.70;2.80;;;13.40;99.90;;;;;;5048950;28;20474;-72
2023/07/26 08:25:30;;;;;;;2.90;2.30;;;13.40;99.90;;;;;;5049260;28;20463;-72
2023/07/26 08:27:57;;;;;;;2.30;2.10;;;13.40;99.90;;;;;;5045036;28;20491;-73
2023/07/26 08:30:24;;;;;;;5.90;2.60;;;13.50;99.90;;;;;;5049007;28;20459;-70
2023/07/26 08:32:52;;;;;;;2.77;2.57;;;13.50;99.90;;;;;;5049097;28;20467;-71
2023/07/26 08:35:19;;;;;;;3.23;2.10;;;13.50;99.90;;;;;;5049532;28;20958;-71
2023/07/26 08:37:45;;;;;;;1.60;1.50;;;13.50;99.90;;;;;;5048469;28;20487;-70
2023/07/26 08:40:13;;;;;;;2.03;1.53;;;13.60;99.90;;;;;;5049366;28;20951;-70
2023/07/26 08:42:41;;;;;;;1.70;1.60;;;13.70;99.90;;;;;;5048805;28;20466;-72
2023/07/26 08:45:08;;;;;;;1.73;1.63;;;13.70;99.90;;;;;;5049346;28;20474;-72
2023/07/26 08:47:36;;;;;;;1.60;1.50;;;13.80;99.90;;;;;;5052402;28;20522;-71
2023/07/26 08:50:06;;;;;;;1.60;1.50;;;13.90;99.90;;;;;;5044566;28;20993;-70
2023/07/26 08:52:33;;;;;;;1.53;1.43;;;13.80;99.90;;;;;;5049756;28;20459;-71
2023/07/26 08:55:00;;;;;;;1.43;1.33;;;13.90;99.90;;;;;;5052723;28;20463;-71
2023/07/26 08:57:27;;;;;;;1.67;1.57;;;13.80;99.90;;;;;;5052642;28;20488;-74
2023/07/26 08:59:54;;;;;;;1.60;1.50;;;13.90;99.90;;;;;;5044751;28;20498;-71
2023/07/26 09:02:22;;;;;;;1.40;1.30;;;13.90;99.90;;;;;;5053079;28;20508;-72
2023/07/26 09:04:49;;;;;;;1.60;1.50;;;13.90;99.90;;;;;;5053033;28;20466;-72
2023/07/26 09:07:17;;;;;;;4.53;1.83;;;13.80;99.90;;;;;;5052573;28;20479;-71
2023/07/26 09:09:44;;;;;;;1.50;1.40;;;13.90;99.90;;;;;;5052828;28;21124;-71
2023/07/26 09:12:17;;;;;;;1.50;1.40;;;13.80;99.90;;;;;;5044695;28;20517;-71
2023/07/26 09:14:44;;;;;;;1.63;1.53;;;13.90;99.90;;;;;;5042786;28;20460;-73
2023/07/26 09:17:10;;;;;;;2.10;1.90;;;13.90;99.90;;;;;;5052487;28;20467;-71
2023/07/26 09:19:39;;;;;;;1.33;1.23;;;14.00;99.90;;;;;;5052346;28;20833;-72
2023/07/26 09:22:09;;;;;;;2.70;1.40;;;14.00;99.90;;;;;;5052794;28;20502;-73
2023/07/26 09:24:40;;;;;;;2.33;1.70;;;14.00;99.90;;;;;;5052471;28;20842;-71
2023/07/26 09:27:08;;;;;;;1.40;1.30;;;14.00;99.90;;;;;;5052374;28;20467;-68
2023/07/26 09:29:36;;;;;;;2.13;1.50;;;14.00;99.90;;;;;;5042976;28;20452;-71
2023/07/26 09:32:03;;;;;;;1.50;1.30;;;14.10;99.90;;;;;;5044869;28;20466;-70
2023/07/26 09:34:31;;;;;;;1.23;1.13;;;14.00;99.90;;;;;;5052216;28;20470;-71
2023/07/26 09:36:58;;;;;;;2.23;1.30;;;14.00;99.90;;;;;;5051676;28;20466;-69
2023/07/26 09:39:28;;;;;;;1.30;1.10;;;14.00;99.90;;;;;;5052146;28;20832;-71
2023/07/26 09:42:05;;;;;;;1.40;1.30;;;14.00;99.90;;;;;;5051890;28;20488;-71
2023/07/26 09:44:33;;;;;;;1.10;1.00;;;14.00;99.90;;;;;;5052189;28;20455;-71
2023/07/26 09:47:00;;;;;;;1.40;1.30;;;14.00;99.90;;;;;;5043652;28;20471;-71
2023/07/26 09:49:27;;;;;;;1.20;1.10;;;14.00;99.90;;;;;;5051940;28;20525;-71
2023/07/26 09:51:57;;;;;;;2.03;1.30;;;14.00;99.90;;;;;;5051729;28;20495;-71
2023/07/26 09:54:26;;;;;;;1.60;1.47;;;14.10;99.90;;;;;;5051423;28;20993;-72
2023/07/26 09:56:54;;;;;;;2.33;1.43;;;14.30;99.90;;;;;;5042618;28;20471;-71
2023/07/26 09:59:25;;;;;;;1.20;1.10;;;14.40;99.90;;;;;;5051694;28;20838;-70
2023/07/26 10:01:53;;;;;;;2.90;1.63;;;14.50;99.90;;;;;;5051814;28;20464;-70
2023/07/26 10:04:26;;;;;;;1.37;1.27;;;14.60;99.90;;;;;;5051643;28;20463;-70
2023/07/26 10:06:57;;;;;;;1.40;1.30;;;14.70;99.90;;;;;;5039801;28;20514;-69
2023/07/26 10:09:25;;;;;;;1.40;1.30;;;15.00;99.90;;;;;;5042376;28;20954;-69
2023/07/26 10:11:55;;;;;;;1.30;1.20;;;15.20;99.90;;;;;;5040831;28;20468;-70
2023/07/26 10:14:25;;;;;;;1.60;1.50;;;15.30;99.90;;;;;;5051638;28;20493;-70
2023/07/26 10:16:53;;;;;;;1.40;1.30;;;15.70;99.90;;;;;;5050557;28;20469;-70
2023/07/26 10:19:22;;;;;;;1.83;1.67;;;16.00;99.90;;;;;;5050738;28;20460;-71
2023/07/26 10:21:50;;;;;;;2.57;1.60;;;16.40;99.90;;;;;;5051208;28;20524;-70
2023/07/26 10:24:20;;;;;;;1.63;1.10;;;16.70;99.90;;;;;;5051118;28;20467;-70
2023/07/26 10:26:49;;;;;;;2.87;1.53;;;16.90;99.90;;;;;;5042525;28;20819;-70
2023/07/26 10:29:16;;;;;;;1.50;1.27;;;17.00;99.90;;;;;;5037749;28;20488;-72
2023/07/26 10:31:45;;;;;;;1.43;1.30;;;16.90;99.90;;;;;;5031477;28;20458;-72
2023/07/26 10:34:20;;;;;;;1.43;1.33;;;16.80;99.90;;;;;;5051183;28;20542;-71
2023/07/26 10:36:47;;;;;;;1.63;1.23;;;16.70;99.90;;;;;;5050665;28;20461;-71
2023/07/26 10:39:14;;;;;;;1.47;1.33;;;16.60;99.90;;;;;;5051086;28;20483;-72
2023/07/26 10:41:50;;;;;;;1.30;1.10;;;16.50;99.90;;;;;;5050916;28;20486;-71
2023/07/26 10:44:17;;;;;;;1.97;1.37;;;16.30;99.90;;;;;;5037448;28;20519;-71
2023/07/26 10:46:52;;;;;;;1.83;1.50;;;16.20;99.90;;;;;;5047110;28;20475;-71
2023/07/26 10:49:24;;;;;;;1.20;1.10;;;16.10;99.90;;;;;;5044566;28;20555;-71
2023/07/26 10:51:56;;;;;;;1.20;1.10;;;16.10;99.90;;;;;;5041772;28;20481;-71
2023/07/26 10:54:34;;;;;;;2.73;1.53;;;16.20;99.90;;;;;;5033341;28;20637;-71
2023/07/26 10:57:22;;;;;;;1.60;1.47;;;16.10;99.90;;;;;;5041237;28;21012;-72
2023/07/26 10:59:56;;;;;;;2.07;1.50;;;16.10;99.90;;;;;;5050264;28;20488;-73
2023/07/26 11:02:43;;;;;;;1.73;1.50;;;16.00;99.90;;;;;;5050973;28;20495;-73
2023/07/26 11:05:12;;;;;;;1.77;1.67;;;15.80;99.90;;;;;;5043821;28;20863;-73
2023/07/26 11:07:52;;;;;;;1.80;1.60;;;15.70;99.90;;;;;;5046012;28;20531;-72
2023/07/26 11:10:21;;;;;;;2.30;2.10;;;15.50;99.90;;;;;;5045279;28;20497;-75
2023/07/26 11:12:50;;;;;;;2.43;1.23;;;15.50;99.90;;;;;;5047379;28;21018;-71
2023/07/26 11:15:27;;;;;;;1.80;1.70;;;15.50;99.90;;;;;;5050454;28;20534;-73
2023/07/26 11:17:55;;;;;;;2.20;1.70;;;15.70;99.90;;;;;;5049961;28;20566;-74
2023/07/26 11:20:22;;;;;;;2.03;1.83;;;15.80;99.90;;;;;;5049554;28;20480;-71
2023/07/26 11:22:49;;;;;;;1.93;1.80;;;15.90;99.90;;;;;;5050316;28;20970;-71
2023/07/26 11:25:16;;;;;;;2.07;1.93;;;16.10;99.90;;;;;;5045605;28;20846;-71
2023/07/26 11:27:45;;;;;;;3.10;1.73;;;16.30;99.90;;;;;;5046358;28;20491;-70
2023/07/26 11:30:15;;;;;;;1.73;1.63;;;16.30;99.90;;;;;;5042058;28;20485;-70
2023/07/26 11:32:44;;;;;;;2.00;1.80;;;16.60;99.90;;;;;;5041796;28;20850;-72
2023/07/26 11:35:13;;;;;;;2.57;2.20;;;16.80;99.90;;;;;;5041499;28;20506;-75
2023/07/26 11:37:50;;;;;;;1.90;1.70;;;16.90;99.90;;;;;;5049931;28;20484;-73
2023/07/26 11:40:18;;;;;;;3.20;2.30;;;17.00;99.90;;;;;;5034772;28;20492;-74
2023/07/26 11:42:45;;;;;;;2.17;1.97;;;17.00;99.90;;;;;;5049821;28;20473;-74
2023/07/26 11:45:12;;;;;;;1.60;1.50;;;17.20;99.90;;;;;;5049527;28;20475;-74
2023/07/26 11:47:40;;;;;;;2.27;1.60;;;17.50;99.90;;;;;;5049821;28;20484;-72
2023/07/26 11:50:07;;;;;;;4.00;1.80;;;17.90;99.90;;;;;;5049281;28;20466;-72
2023/07/26 11:52:36;;;;;;;1.70;1.60;;;18.10;99.90;;;;;;5050008;28;20462;-71
2023/07/26 11:55:04;;;;;;;2.00;1.90;;;18.20;99.90;;;;;;5049384;28;20466;-71
2023/07/26 11:57:31;;;;;;;1.90;1.80;;;18.40;99.90;;;;;;5048909;28;20489;-71
2023/07/26 12:00:01;;;;;;;4.10;2.10;;;18.50;99.90;;;;;;5049297;28;20455;-73
2023/07/26 12:02:29;;;;;;;2.30;2.10;;;18.50;99.90;;;;;;5050184;28;20455;-73
2023/07/26 12:05:15;;;;;;;2.83;1.83;;;18.50;99.90;;;;;;5049192;28;20475;-73
2023/07/26 12:07:46;;;;;;;2.10;1.90;;;18.50;99.90;;;;;;5049530;28;20476;-69
2023/07/26 12:10:13;;;;;;;2.80;2.10;;;18.50;99.90;;;;;;5041223;28;20465;-74
2023/07/26 12:12:40;;;;;;;2.30;1.70;;;18.60;99.90;;;;;;5049935;28;20463;-74
2023/07/26 12:15:09;;;;;;;2.83;1.63;;;18.60;99.90;;;;;;5049236;28;20467;-73
2023/07/26 12:17:36;;;;;;;1.80;1.70;;;18.50;99.90;;;;;;5049498;28;20484;-71
2023/07/26 12:20:08;;;;;;;2.57;2.30;;;18.30;99.90;;;;;;5050826;28;20459;-73
2023/07/26 12:22:48;;;;;;;2.30;1.93;;;18.00;99.90;;;;;;5053748;28;20561;-71
2023/07/26 12:25:17;;;;;;;1.60;1.50;;;17.80;99.90;;;;;;5036779;28;20469;-72
2023/07/26 12:27:43;;;;;;;2.37;1.80;;;17.60;99.90;;;;;;5053327;28;20852;-72
2023/07/26 12:30:12;;;;;;;2.57;1.97;;;17.50;99.90;;;;;;5053159;28;20466;-72
2023/07/26 12:32:39;;;;;;;2.13;1.73;;;17.40;99.90;;;;;;5052954;28;20552;-71
2023/07/26 12:35:18;;;;;;;1.90;1.70;;;17.30;99.90;;;;;;5053548;28;20475;-72
2023/07/26 12:37:45;;;;;;;4.80;2.23;;;17.20;99.90;;;;;;5047357;28;20494;-71
2023/07/26 12:40:12;;;;;;;2.30;1.90;;;17.10;99.90;;;;;;5050524;28;20469;-71
2023/07/26 12:42:40;;;;;;;2.37;2.03;;;16.90;99.90;;;;;;5053517;28;20463;-71
2023/07/26 12:45:09;;;;;;;2.97;2.03;;;16.90;99.90;;;;;;5052375;28;20525;-71
2023/07/26 12:47:35;;;;;;;2.33;1.80;;;16.80;99.90;;;;;;5038329;28;21011;-72
2023/07/26 12:50:02;;;;;;;2.00;1.57;;;16.70;99.90;;;;;;5050781;28;20458;-72